Logo AVAMET
Benvolgut visitant, si us plau, ingressa Recuperar contrasenya
AVAMET paisatges

Inforatge Castelló de la Plana Centre Urban

Dades diàries. Acumulats / Últims 30 dies disponibles

Data Temperatura (°C) Humitat rel. (%) Pressió rel. (hPa) Vent (km/h) Precipitació
Mínima Mitjana Màxima Amplitud
tèrmica
Mínima Mitjana Màxima Mínima Mitjana Màxima Predom. Mitjana Ràfega
màxima
Total
(mm)
Índex-n
Mínima Mitjana Màxima Mínima Mitjana Màxima n
0 a 1
P0 max
mm 5'
Dades mensuals acumulades fins l'últim dia disponible
02/2020 4,4 9,0 12,2 13,5 14,5 18,8 26,1 21,7 39 77 93 1.021 1.028 1.035   3,4 29,0 0,0
Dades anuals acumulades fins l'últim dia disponible
2020 1,5 7,1 12,2 11,6 10,3 16,9 26,1 24,6 38 78 96 1.016 1.027 1.035   4,0 69,2 73,4
Últims 30 dies disponibles
19-02-2020 7,2     12,3     15,8 8,6 46 72 88 1.030 1.032 1.034 SE 4,2 20,9 0,0
18-02-2020 11,8     13,1     14,7 2,9 62 78 92 1.031 1.033 1.035 WNW 1,6 17,7 0,0
17-02-2020 10,7     13,1     16,3 5,6 74 86 91 1.025 1.027 1.031 W 3,5 16,1 0,0
16-02-2020 8,8     12,7     16,7 7,9 72 86 93 1.026 1.028 1.029 W 2,4 14,5 0,0
15-02-2020 7,2     11,8     16,7 9,5 74 86 92 1.026 1.028 1.029 W 3,1 17,7 0,0
14-02-2020 9,6     14,5     21,3 11,7 46 71 88 1.025 1.026 1.027 W 5,1 19,3 0,0
13-02-2020 10,7     13,8     17,8 7,1 73 85 93 1.022 1.024 1.025 W 2,3 14,5 0,0
12-02-2020 12,2     14,1     16,7 4,5 70 81 91 1.024 1.026 1.027 ENE 5,5 29,0 0,0
11-02-2020 10,3     15,5     22,0 11,7 53 72 86 1.023 1.025 1.027 W 3,1 16,1 0,0
10-02-2020 7,7     14,6     22,6 14,9 49 74 93 1.027 1.029 1.031 W 2,7 16,1 0,0
09-02-2020 6,9     11,4     16,6 9,7 67 85 93 1.028 1.031 1.033 W 2,6 16,1 0,0
08-02-2020 5,9     10,7     15,2 9,3 69 83 92 1.025 1.026 1.029 W 2,7 17,7 0,0
07-02-2020 8,3     11,2     14,5 6,2 64 80 88 1.025 1.026 1.028 W 1,8 14,5 0,0
06-02-2020 4,4     9,9     15,6 11,2 58 82 93 1.027 1.029 1.030 W 4,0 27,4 0,0
05-02-2020 7,1     11,3     15,8 8,7 44 67 90 1.028 1.030 1.033 W 3,5 24,1 0,0
04-02-2020 10,7     17,6     23,2 12,5 45 57 80 1.023 1.025 1.028 WNW 5,0 24,1 0,0
03-02-2020 10,6     16,2     25,0 14,4 39 71 86 1.027 1.029 1.030 W 4,3 17,7 0,0
02-02-2020 11,4     16,9     23,7 12,3 47 68 84 1.026 1.028 1.030 W 4,3 19,3 0,0
01-02-2020 10,3     16,3     26,1 15,8 42 70 86 1.021 1.023 1.027 W 3,7 29,0 0,0
31-01-2020 10,7     14,8     20,4 9,7 55 74 87 1.022 1.023 1.024 SSO 3,1 17,7 0,0
30-01-2020 9,7     14,3     19,6 9,9 56 73 85 1.020 1.022 1.024 W 3,5 16,1 0,0
29-01-2020 11,6     16,1     22,0 10,4 52 69 82 1.021 1.022 1.024 W 4,3 24,1 0,0
28-01-2020 11,8     15,8     20,6 8,8 53 67 81 1.019 1.021 1.022 W 6,4 33,8 0,0
27-01-2020 4,7     10,5     15,8 11,1 51 72 88 1.020 1.023 1.026 W 4,0 25,7 0,0
26-01-2020 7,4     11,4     16,2 8,8 64 84 94 1.020 1.022 1.026 W 2,4 16,1 1,0
25-01-2020 9,1     11,7     14,7 5,6 76 86 93 1.019 1.021 1.023 ENE 2,9 30,6 0,2
24-01-2020 6,4     10,7     16,2 9,8 61 84 93 1.022 1.024 1.025 WNW 2,3 19,3 0,0
23-01-2020 6,4     10,8     14,1 7,7 68 80 89 1.019 1.022 1.025 W 3,7 14,5 0,0
22-01-2020 9,3     12,3     15,6 6,3 69 80 91 1.018 1.020 1.022 NNE 7,1 27,4 0,2
21-01-2020 7,6     11,0     14,0 6,4 81 90 96 1.016 1.019 1.024 NE 16,4 59,5 32,8 0,62 2,20
Últims 13 mesos disponibles
01/2020 1,5 6,0 11,8 10,4 10,3 15,7 22,0 20,5 66 78 90 1.019 1.026 1.033 W 4,4 69,2 73,4
12/2019 3,4 8,9 16,4 13,2 12,7 17,7 25,8 22,4 48 74 87 1.002 1.020 1.034 W 4,7 61,2 128,4
11/2019 4,6 10,5 17,9 15,0 15,3 20,1 28,2 23,6 43 58 80 998 1.011 1.019 W 5,8 57,9 5,0
10/2019 9,7 15,0 19,6 19,4 17,1 24,0 28,4 18,7 50 73 87 1.008 1.018 1.023 W 4,3 49,9 20,2
09/2019 15,0 19,4 22,2 23,3 21,6 27,2 31,3 16,3 52 73 84 1.011 1.019 1.027 S 5,5 55,6 62,8
08/2019 17,7 21,4 25,0 25,8 25,9 29,8 32,9 15,2 55 73 81 1.012 1.018 1.022 SSE 5,1 44,4 38,0
07/2019 19,6 21,4 24,1 26,3 27,5 30,2 34,5 14,9 50 67 78 1.007 1.016 1.023 SSE 5,4 35,4 11,4
06/2019 10,7 17,0 20,6 22,1 21,0 26,4 36,9 26,2 42 65 80 1.009 1.017 1.024 SE 5,8 55,6 0,0
05/2019 8,3 13,2 16,6 17,8 17,9 22,2 28,2 19,9 52 69 82 1.006 1.017 1.026 SSO 5,8 48,3 15,8
04/2019 6,6 10,7 13,8 15,1 15,7 19,6 26,8 20,2 46 65 88 1.000 1.014 1.027 SSO 7,5 64,8 55,2
03/2019 4,7 8,2 12,7 13,8 13,1 19,0 25,4 20,7 42 62 82 1.012 1.024 1.031 SSO 5,3 42,6 12,2
02/2019 0,7 5,7 10,8 11,1 13,1 17,1 23,3 22,6 29 68 83 994 1.026 1.035 SSO 5,0 74,1 0,0
01/2019 1,8 4,8 8,6 10,2 12,6 16,3 22,4 20,6 41 62 83 1.001 1.020 1.031 SO 5,6 79,6 0,8
Tots els anys disponibles
2019 0,7 13,0 25,0 17,8 12,6 22,5 36,9 36,2 29 67 88 994 1.018 1.035 SSO 5,5 79,6 349,8
Temperatura (°C)
Humitat relativa (%)
Velocitat del vent i ràfega màxima (km/h)
Direcció del vent (°)
Pressió (hPa)
Precipitació (mm)
Nota sobre les dades: s'avisa a l'usuari de la provisionalitat i no oficialitat d'aquestes dades
Logo AVAMET blanc
Web allotjada a Sollutia
Llicència de Creative CommonsLa web d'AVAMET i els seus continguts estan subjectes a una llicència de
Reconeixement - No Comercial - Compartir igual
Últimes estacions:  Sorita (AVAMET), Gorga (Soci), Massalavés - Ajuntament (Soci/Inforatge), Albuixech - Polígon (Inforatge), La Torre d'en Besora (Ajuntament soci), Xixona - Sogorb Barranc Blanc (Soci), Pedreguer - Patronat (Soci) - - -